createdAt,value
2018-08-23T00:01:36.944Z,60.60
2018-08-23T00:04:07.138Z,59.17
2018-08-23T00:06:36.705Z,61.03
2018-08-23T00:09:07.746Z,64.03
2018-08-23T00:11:45.402Z,62.53
2018-08-23T00:14:14.853Z,61.87
2018-08-23T00:16:44.838Z,66.87
2018-08-23T00:19:14.210Z,67.70
2018-08-23T00:21:45.432Z,64.87
2018-08-23T00:24:17.664Z,63.20
2018-08-23T00:26:49.438Z,61.13
2018-08-23T00:29:26.384Z,62.80
2018-08-23T00:32:00.763Z,61.83
2018-08-23T00:34:31.114Z,66.10
2018-08-23T00:37:00.558Z,62.17
2018-08-23T00:39:29.974Z,74.40
2018-08-23T00:42:03.905Z,69.40
2018-08-23T00:44:48.602Z,63.30
2018-08-23T00:47:17.791Z,68.03
2018-08-23T00:49:46.760Z,77.57
2018-08-23T00:52:17.997Z,76.07
2018-08-23T00:54:47.050Z,83.63
2018-08-23T00:57:15.945Z,82.07
2018-08-23T00:59:49.057Z,81.50
2018-08-23T01:02:18.133Z,85.90
2018-08-23T01:04:47.623Z,73.73
2018-08-23T01:07:20.774Z,77.43
2018-08-23T01:09:49.884Z,86.40
2018-08-23T01:12:20.053Z,73.93
2018-08-23T01:14:51.422Z,71.77
2018-08-23T01:17:20.417Z,76.63
2018-08-23T01:19:59.055Z,80.57
2018-08-23T01:22:28.082Z,73.03
2018-08-23T01:24:59.785Z,68.50
2018-08-23T01:27:34.358Z,74.67
2018-08-23T01:30:03.510Z,83.63
2018-08-23T01:32:33.037Z,81.10
2018-08-23T01:35:02.423Z,90.50
2018-08-23T01:37:39.384Z,95.00
2018-08-23T01:40:09.920Z,87.50
2018-08-23T01:42:40.118Z,89.83
2018-08-23T01:45:10.186Z,91.50
2018-08-23T01:47:44.443Z,97.43
2018-08-23T01:50:14.459Z,94.93
2018-08-23T01:52:50.614Z,93.87
2018-08-23T01:55:21.037Z,98.33
2018-08-23T01:57:50.465Z,94.93
2018-08-23T02:00:21.904Z,98.93
2018-08-23T02:02:51.006Z,113.47
2018-08-23T02:05:20.086Z,110.90
2018-08-23T02:07:49.110Z,100.47
2018-08-23T02:10:18.094Z,95.83
2018-08-23T02:12:51.478Z,115.80
2018-08-23T02:15:20.838Z,102.53
2018-08-23T02:17:52.706Z,97.53
2018-08-23T02:20:22.713Z,106.07
2018-08-23T02:22:52.222Z,94.67
2018-08-23T02:25:21.227Z,101.10
2018-08-23T02:28:07.779Z,91.27
2018-08-23T02:30:53.199Z,91.37
2018-08-23T02:33:22.301Z,98.20
2018-08-23T02:36:22.155Z,90.10
2018-08-23T02:38:59.781Z,92.30
2018-08-23T02:41:29.397Z,97.73
2018-08-23T02:43:58.526Z,95.33
2018-08-23T02:46:27.614Z,101.90
2018-08-23T02:48:56.843Z,85.17
2018-08-23T02:51:34.605Z,80.87
2018-08-23T02:54:03.625Z,80.50
2018-08-23T02:56:32.849Z,93.30
2018-08-23T02:59:08.041Z,76.87
2018-08-23T03:01:44.494Z,82.60
2018-08-23T03:04:15.699Z,77.13
2018-08-23T03:06:51.096Z,85.40
2018-08-23T03:09:22.424Z,82.17
2018-08-23T03:11:52.638Z,89.33
2018-08-23T03:14:22.729Z,81.90
2018-08-23T03:17:10.186Z,88.13
2018-08-23T03:19:44.361Z,94.83
2018-08-23T03:22:13.558Z,96.40
2018-08-23T03:24:42.594Z,96.47
2018-08-23T03:27:11.857Z,91.90
2018-08-23T03:29:41.013Z,74.27
2018-08-23T03:32:10.072Z,100.60
2018-08-23T03:34:39.194Z,84.43
2018-08-23T03:37:08.213Z,83.40
2018-08-23T03:39:37.229Z,82.73
2018-08-23T03:42:06.429Z,89.00
2018-08-23T03:44:37.403Z,68.93
2018-08-23T03:47:06.537Z,81.50
2018-08-23T03:49:41.031Z,85.70
2018-08-23T03:52:10.123Z,67.73
2018-08-23T03:54:39.123Z,85.80
2018-08-23T03:57:17.458Z,94.67
2018-08-23T03:59:48.650Z,93.77
2018-08-23T04:02:18.678Z,100.60
2018-08-23T04:04:50.114Z,86.80
2018-08-23T04:07:19.224Z,101.43
2018-08-23T04:09:48.265Z,95.70
2018-08-23T04:12:17.433Z,106.77
2018-08-23T04:14:46.522Z,97.07
2018-08-23T04:17:15.775Z,104.93
2018-08-23T04:19:47.321Z,106.10
2018-08-23T04:22:16.309Z,102.73
2018-08-23T04:24:50.781Z,94.90
2018-08-23T04:27:20.018Z,91.00
2018-08-23T04:29:49.166Z,85.53
2018-08-23T04:32:29.093Z,94.57
2018-08-23T04:34:59.753Z,106.10
2018-08-23T04:37:29.897Z,111.90
2018-08-23T04:40:04.963Z,99.20
2018-08-23T04:42:34.630Z,107.57
2018-08-23T04:45:11.628Z,96.90
2018-08-23T04:47:48.815Z,93.80
2018-08-23T04:50:17.849Z,97.83
2018-08-23T04:52:46.890Z,112.53
2018-08-23T04:55:16.043Z,104.77
2018-08-23T04:57:45.305Z,113.00
2018-08-23T05:00:14.534Z,100.30
2018-08-23T05:02:43.707Z,98.50
2018-08-23T05:05:12.926Z,90.33
2018-08-23T05:07:41.979Z,97.60
2018-08-23T05:10:11.318Z,101.53
2018-08-23T05:12:40.369Z,99.43
2018-08-23T05:15:09.447Z,88.30
2018-08-23T05:17:38.597Z,88.23
2018-08-23T05:20:08.052Z,83.23
2018-08-23T05:22:37.387Z,77.53
2018-08-23T05:25:22.163Z,97.23
2018-08-23T05:28:07.336Z,81.83
2018-08-23T05:30:36.487Z,82.03
2018-08-23T05:33:22.257Z,79.53
2018-08-23T05:35:51.976Z,83.33
2018-08-23T05:38:21.354Z,75.17
2018-08-23T05:40:55.142Z,75.70
2018-08-23T05:43:24.302Z,76.70
2018-08-23T05:45:54.768Z,76.33
2018-08-23T05:48:32.251Z,72.50
2018-08-23T05:51:04.443Z,79.07
2018-08-23T05:53:35.259Z,77.33
2018-08-23T05:56:04.412Z,71.70
2018-08-23T05:58:33.738Z,87.13
2018-08-23T06:01:03.300Z,85.73
2018-08-23T06:03:32.414Z,75.27
2018-08-23T06:06:01.775Z,73.70
2018-08-23T06:08:31.462Z,80.37
2018-08-23T06:11:05.785Z,78.73
2018-08-23T06:13:35.153Z,88.40
2018-08-23T06:16:04.390Z,96.03
2018-08-23T06:18:33.548Z,101.63
2018-08-23T06:21:02.730Z,96.57
2018-08-23T06:24:11.341Z,99.47
2018-08-23T06:26:46.925Z,103.70
2018-08-23T06:29:18.628Z,93.20
2018-08-23T06:31:58.747Z,113.53
2018-08-23T06:34:29.562Z,113.70
2018-08-23T06:36:58.633Z,107.50
2018-08-23T06:39:27.686Z,106.10
2018-08-23T06:41:58.368Z,98.60
2018-08-23T06:44:37.477Z,100.83
2018-08-23T06:47:07.690Z,96.90
2018-08-23T06:49:36.701Z,88.43
2018-08-23T06:52:12.525Z,108.43
2018-08-23T06:54:41.902Z,86.30
2018-08-23T06:57:11.687Z,94.50
2018-08-23T06:59:42.739Z,99.23
2018-08-23T07:02:12.022Z,82.63
2018-08-23T07:04:41.050Z,91.87
2018-08-23T07:07:14.444Z,89.53
2018-08-23T07:09:43.481Z,90.77
2018-08-23T07:12:19.598Z,84.73
2018-08-23T07:14:49.835Z,82.67
2018-08-23T07:17:24.322Z,88.43
2018-08-23T07:19:53.454Z,77.93
2018-08-23T07:22:24.899Z,78.03
2018-08-23T07:24:55.327Z,79.17
2018-08-23T07:27:24.420Z,72.97
2018-08-23T07:29:56.619Z,77.90
2018-08-23T07:32:28.837Z,75.47
2018-08-23T07:35:03.969Z,67.07
2018-08-23T07:37:34.405Z,74.30
2018-08-23T07:40:08.881Z,71.07
2018-08-23T07:42:38.838Z,67.73
2018-08-23T07:45:08.798Z,68.27
2018-08-23T07:47:39.392Z,73.10
2018-08-23T07:50:08.500Z,74.47
2018-08-23T07:52:37.996Z,89.00
2018-08-23T07:55:07.405Z,83.13
2018-08-23T07:57:37.310Z,77.90
2018-08-23T08:00:17.875Z,77.10
2018-08-23T08:02:46.873Z,76.40
2018-08-23T08:05:15.963Z,75.67
2018-08-23T08:07:45.390Z,68.60
2018-08-23T08:10:19.757Z,63.93
2018-08-23T08:12:50.520Z,62.23
2018-08-23T08:15:19.714Z,65.27
2018-08-23T08:17:48.605Z,61.40
2018-08-23T08:20:17.697Z,61.33
2018-08-23T08:22:46.697Z,63.47
2018-08-23T08:25:17.041Z,63.83
2018-08-23T08:27:46.611Z,59.07
2018-08-23T08:30:17.275Z,60.57
2018-08-23T08:32:46.499Z,55.70
2018-08-23T08:35:17.704Z,74.30
2018-08-23T08:37:48.129Z,59.97
2018-08-23T08:40:22.417Z,55.97
2018-08-23T08:42:51.457Z,62.87
2018-08-23T08:45:20.484Z,56.00
2018-08-23T08:47:49.503Z,55.57
2018-08-23T08:50:18.582Z,66.83
2018-08-23T08:52:47.925Z,62.20
2018-08-23T08:55:17.618Z,57.53
2018-08-23T08:57:47.429Z,57.77
2018-08-23T09:00:16.429Z,62.20
2018-08-23T09:02:45.498Z,61.77
2018-08-23T09:05:14.490Z,58.00
2018-08-23T09:07:44.817Z,57.80
2018-08-23T09:10:13.827Z,57.77
2018-08-23T09:12:47.030Z,56.57
2018-08-23T09:15:16.213Z,67.50
2018-08-23T09:17:46.326Z,60.20
2018-08-23T09:20:18.560Z,64.80
2018-08-23T09:22:55.332Z,52.53
2018-08-23T09:25:27.702Z,61.67
2018-08-23T09:27:56.961Z,53.27
2018-08-23T09:30:28.565Z,46.60
2018-08-23T09:32:58.141Z,56.57
2018-08-23T09:35:29.907Z,50.80
2018-08-23T09:38:00.493Z,46.63
2018-08-23T09:40:30.144Z,49.70
2018-08-23T09:43:03.049Z,51.13
2018-08-23T09:45:33.202Z,49.90
2018-08-23T09:48:02.475Z,46.83
2018-08-23T09:50:31.471Z,48.57
2018-08-23T09:53:00.558Z,40.90
2018-08-23T09:55:31.504Z,42.27
2018-08-23T09:58:00.669Z,41.00
2018-08-23T10:00:35.223Z,44.13
2018-08-23T10:03:09.758Z,35.30
2018-08-23T10:05:48.484Z,40.07
2018-08-23T10:08:23.074Z,36.27
2018-08-23T10:10:57.717Z,34.33
2018-08-23T10:13:32.239Z,39.43
2018-08-23T10:16:06.486Z,51.07
2018-08-23T10:18:40.665Z,35.60
2018-08-23T10:21:09.758Z,44.10
2018-08-23T10:23:38.798Z,38.30
2018-08-23T10:26:23.484Z,45.00
2018-08-23T10:28:52.633Z,39.33
2018-08-23T10:31:21.801Z,39.80
2018-08-23T10:33:50.804Z,39.20
2018-08-23T10:36:19.860Z,45.53
2018-08-23T10:38:48.873Z,45.23
2018-08-23T10:41:17.882Z,38.67
2018-08-23T10:43:48.364Z,48.63
2018-08-23T10:46:17.408Z,49.50
2018-08-23T10:48:46.535Z,46.33
2018-08-23T10:51:15.674Z,54.87
2018-08-23T10:53:44.658Z,53.27
2018-08-23T10:56:13.701Z,54.33
2018-08-23T10:58:42.926Z,59.70
2018-08-23T11:01:14.038Z,54.30
2018-08-23T11:03:43.186Z,52.57
2018-08-23T11:06:12.229Z,53.73
2018-08-23T11:08:41.313Z,60.03
2018-08-23T11:11:15.664Z,57.40
2018-08-23T11:13:46.144Z,54.77
2018-08-23T11:16:20.586Z,64.33
2018-08-23T11:18:55.966Z,64.17
2018-08-23T11:21:25.071Z,65.53
2018-08-23T11:23:54.093Z,73.47
2018-08-23T11:26:24.474Z,72.47
2018-08-23T11:28:53.532Z,60.97
2018-08-23T11:31:29.211Z,58.03
2018-08-23T11:33:58.318Z,64.13
2018-08-23T11:36:27.432Z,64.80
2018-08-23T11:38:56.426Z,61.80
2018-08-23T11:41:25.430Z,56.27
2018-08-23T11:43:54.510Z,60.83
2018-08-23T11:46:23.742Z,61.30
2018-08-23T11:48:52.839Z,56.70
2018-08-23T11:51:21.806Z,57.83
2018-08-23T11:53:50.824Z,49.33
2018-08-23T11:56:19.779Z,53.57
2018-08-23T11:58:49.798Z,56.23
2018-08-23T12:01:18.906Z,49.83
2018-08-23T12:03:47.973Z,48.47
2018-08-23T12:06:17.736Z,49.20
2018-08-23T12:08:46.880Z,54.50
2018-08-23T12:11:16.314Z,52.27
2018-08-23T12:13:46.074Z,42.93
2018-08-23T12:16:15.161Z,41.50
2018-08-23T12:18:44.280Z,35.73
2018-08-23T12:21:13.247Z,40.00
2018-08-23T12:23:42.263Z,41.57
2018-08-23T12:26:11.395Z,44.80
2018-08-23T12:28:45.748Z,39.33
2018-08-23T12:31:14.774Z,39.00
2018-08-23T12:33:43.893Z,39.17
2018-08-23T12:36:13.195Z,40.93
2018-08-23T12:38:47.761Z,36.83
2018-08-23T12:41:22.183Z,39.67
2018-08-23T12:43:52.250Z,39.80
2018-08-23T12:46:21.407Z,33.23
2018-08-23T12:48:54.618Z,37.00
2018-08-23T12:51:23.593Z,38.90
2018-08-23T12:53:52.649Z,36.03
2018-08-23T12:56:22.962Z,34.87
2018-08-23T12:58:52.075Z,34.73
2018-08-23T13:01:21.121Z,32.50
2018-08-23T13:03:50.439Z,32.33
2018-08-23T13:06:19.344Z,32.27
2018-08-23T13:08:48.528Z,35.37
2018-08-23T13:11:17.456Z,34.87
2018-08-23T13:13:46.510Z,33.23
2018-08-23T13:16:15.608Z,31.90
2018-08-23T13:18:44.728Z,32.90
2018-08-23T13:21:13.861Z,26.40
2018-08-23T13:23:45.932Z,28.47
2018-08-23T13:26:15.062Z,26.63
2018-08-23T13:28:44.077Z,26.97
2018-08-23T13:31:13.145Z,30.53
2018-08-23T13:33:42.156Z,24.43
2018-08-23T13:36:11.174Z,27.33
2018-08-23T13:38:40.468Z,21.90
2018-08-23T13:41:09.509Z,25.50
2018-08-23T13:43:38.810Z,27.87
2018-08-23T13:46:07.722Z,25.53
2018-08-23T13:48:36.731Z,27.77
2018-08-23T13:51:05.930Z,29.33
2018-08-23T13:53:35.030Z,25.03
2018-08-23T13:56:04.177Z,25.70
2018-08-23T13:58:33.189Z,27.80
2018-08-23T14:01:02.181Z,28.07
2018-08-23T14:03:31.243Z,32.97
2018-08-23T14:06:00.299Z,28.77
2018-08-23T14:08:29.294Z,28.97
2018-08-23T14:10:58.311Z,35.53
2018-08-23T14:13:27.305Z,30.50
2018-08-23T14:16:01.748Z,28.47
2018-08-23T14:18:30.797Z,27.73
2018-08-23T14:20:59.949Z,28.57
2018-08-23T14:23:28.935Z,33.23
2018-08-23T14:25:57.937Z,26.90
2018-08-23T14:28:26.945Z,31.43
2018-08-23T14:30:55.945Z,26.77
2018-08-23T14:33:25.136Z,26.27
2018-08-23T14:35:54.121Z,24.50
2018-08-23T14:38:23.324Z,25.00
2018-08-23T14:40:52.365Z,32.40
2018-08-23T14:43:21.491Z,27.57
2018-08-23T14:45:50.476Z,31.20
2018-08-23T14:48:20.477Z,23.03
2018-08-23T14:50:53.649Z,29.33
2018-08-23T14:53:25.764Z,22.73
2018-08-23T14:56:00.319Z,21.80
2018-08-23T14:58:29.816Z,32.83
2018-08-23T15:00:58.967Z,32.60
2018-08-23T15:03:27.997Z,28.87
2018-08-23T15:05:57.083Z,26.87
2018-08-23T15:08:26.069Z,23.53
2018-08-23T15:10:55.106Z,28.80
2018-08-23T15:13:24.121Z,28.20
2018-08-23T15:15:54.316Z,25.93
2018-08-23T15:18:23.422Z,24.40
2018-08-23T15:20:52.829Z,36.63
2018-08-23T15:23:21.848Z,24.10
2018-08-23T15:25:50.937Z,24.60
2018-08-23T15:28:20.527Z,26.13
2018-08-23T15:30:49.854Z,22.97
2018-08-23T15:33:18.951Z,23.80
2018-08-23T15:35:48.114Z,25.13
2018-08-23T15:38:17.427Z,25.00
2018-08-23T15:40:47.751Z,24.20
2018-08-23T15:43:19.022Z,24.50
2018-08-23T15:45:48.652Z,29.90
2018-08-23T15:48:17.650Z,22.63
2018-08-23T15:50:46.683Z,23.00
2018-08-23T15:53:16.110Z,21.30
2018-08-23T15:55:45.384Z,19.40
2018-08-23T15:58:14.281Z,18.87
2018-08-23T16:00:43.345Z,20.53
2018-08-23T16:03:12.561Z,20.00
2018-08-23T16:05:41.554Z,17.77
2018-08-23T16:08:10.622Z,18.57
2018-08-23T16:10:39.715Z,20.07
2018-08-23T16:13:08.949Z,23.83
2018-08-23T16:15:38.497Z,15.30
2018-08-23T16:18:13.077Z,17.97
2018-08-23T16:20:48.130Z,18.07
2018-08-23T16:23:17.227Z,12.87
2018-08-23T16:25:46.385Z,19.00
2018-08-23T16:28:15.434Z,17.30
2018-08-23T16:30:46.579Z,15.50
2018-08-23T16:33:15.889Z,10.43
2018-08-23T16:35:45.326Z,15.53
2018-08-23T16:38:14.328Z,14.77
2018-08-23T16:40:43.316Z,21.80
2018-08-23T16:43:12.493Z,19.43
2018-08-23T16:45:41.520Z,14.03
2018-08-23T16:48:10.837Z,15.80
2018-08-23T16:50:39.871Z,20.60
2018-08-23T16:53:09.568Z,24.43
2018-08-23T16:55:38.688Z,22.07
2018-08-23T16:58:07.870Z,16.07
2018-08-23T17:00:37.815Z,20.90
2018-08-23T17:03:07.029Z,16.00
2018-08-23T17:05:36.634Z,21.37
2018-08-23T17:08:05.712Z,24.30
2018-08-23T17:10:34.963Z,20.73
2018-08-23T17:13:04.069Z,16.93
2018-08-23T17:15:38.506Z,18.43
2018-08-23T17:18:07.707Z,17.00
2018-08-23T17:20:36.674Z,16.93
2018-08-23T17:23:06.001Z,14.93
2018-08-23T17:25:35.063Z,16.40
2018-08-23T17:28:04.142Z,13.33
2018-08-23T17:30:33.701Z,16.00
2018-08-23T17:33:02.789Z,18.10
2018-08-23T17:35:32.568Z,14.53
2018-08-23T17:38:02.687Z,13.70
2018-08-23T17:40:31.922Z,13.73
2018-08-23T17:43:01.120Z,9.73
2018-08-23T17:45:30.518Z,21.83
2018-08-23T17:47:59.680Z,10.30
2018-08-23T17:50:29.449Z,15.80
2018-08-23T17:52:58.500Z,16.90
2018-08-23T17:55:27.666Z,12.50
2018-08-23T17:57:56.977Z,10.30
2018-08-23T18:00:26.407Z,12.20
2018-08-23T18:02:55.442Z,13.77
2018-08-23T18:05:24.631Z,10.80
2018-08-23T18:07:54.755Z,12.50
2018-08-23T18:10:24.183Z,8.83
2018-08-23T18:12:53.592Z,9.60
2018-08-23T18:15:27.115Z,9.63
2018-08-23T18:17:56.451Z,11.47
2018-08-23T18:20:25.977Z,14.30
2018-08-23T18:22:55.161Z,11.33
2018-08-23T18:25:24.437Z,12.73
2018-08-23T18:27:53.866Z,15.10
2018-08-23T18:30:23.178Z,13.30
2018-08-23T18:32:52.259Z,11.90
2018-08-23T18:35:21.300Z,9.20
2018-08-23T18:37:51.514Z,10.23
2018-08-23T18:40:20.901Z,10.87
2018-08-23T18:42:49.914Z,9.77
2018-08-23T18:45:18.906Z,11.10
2018-08-23T18:47:48.158Z,7.90
2018-08-23T18:50:17.281Z,10.73
2018-08-23T18:52:46.282Z,8.50
2018-08-23T18:55:15.334Z,11.90
2018-08-23T18:57:44.608Z,11.20
2018-08-23T19:00:13.835Z,8.90
2018-08-23T19:02:42.838Z,10.30
2018-08-23T19:05:11.917Z,10.17
2018-08-23T19:07:42.642Z,12.03
2018-08-23T19:10:12.662Z,9.40
2018-08-23T19:12:42.135Z,9.47
2018-08-23T19:15:11.129Z,11.87
2018-08-23T19:17:41.438Z,10.50
2018-08-23T19:20:12.378Z,9.07
2018-08-23T19:22:41.390Z,13.23
2018-08-23T19:25:11.512Z,10.90
2018-08-23T19:30:16.193Z,16.13
2018-08-23T19:32:45.229Z,8.97
2018-08-23T19:35:14.209Z,10.93
2018-08-23T19:37:43.251Z,9.90
2018-08-23T19:40:12.244Z,14.13
2018-08-23T19:42:41.410Z,9.10
2018-08-23T19:45:10.774Z,10.77
2018-08-23T19:47:42.978Z,12.23
2018-08-23T19:50:12.802Z,12.37
2018-08-23T19:52:42.026Z,9.50
2018-08-23T19:55:12.210Z,12.50
2018-08-23T19:57:41.222Z,18.53
2018-08-23T20:00:11.063Z,15.07
2018-08-23T20:02:40.204Z,10.53
2018-08-23T20:05:09.239Z,12.70
2018-08-23T20:07:38.529Z,16.43
2018-08-23T20:10:07.705Z,11.77
2018-08-23T20:12:37.935Z,13.57
2018-08-23T20:15:07.173Z,14.73
2018-08-23T20:17:36.831Z,16.33
2018-08-23T20:20:06.076Z,16.60
2018-08-23T20:22:35.302Z,13.67
2018-08-23T20:25:04.524Z,12.03
2018-08-23T20:27:33.764Z,12.10
2018-08-23T20:30:02.975Z,14.47
2018-08-23T20:32:32.318Z,16.77
2018-08-23T20:35:01.395Z,8.47
2018-08-23T20:37:30.554Z,9.97
2018-08-23T20:39:59.771Z,12.47
2018-08-23T20:42:28.991Z,9.30
2018-08-23T20:44:58.556Z,15.60
2018-08-23T20:47:27.702Z,10.13
2018-08-23T20:49:57.850Z,9.97
2018-08-23T20:52:26.928Z,10.00
2018-08-23T20:54:55.972Z,12.00
2018-08-23T20:57:25.159Z,8.60
2018-08-23T20:59:54.307Z,13.60
2018-08-23T21:02:23.368Z,14.33
2018-08-23T21:04:52.406Z,10.07
2018-08-23T21:07:21.498Z,11.40
2018-08-23T21:09:50.575Z,10.70
2018-08-23T21:12:19.709Z,9.20
2018-08-23T21:14:48.706Z,9.23
2018-08-23T21:17:17.725Z,5.93
2018-08-23T21:19:46.742Z,6.50
2018-08-23T21:22:15.776Z,6.13
2018-08-23T21:24:44.830Z,5.37
2018-08-23T21:27:14.155Z,8.30
2018-08-23T21:29:43.244Z,4.90
2018-08-23T21:32:12.426Z,5.70
2018-08-23T21:34:41.524Z,9.40
2018-08-23T21:37:10.547Z,6.60
2018-08-23T21:39:39.495Z,7.40
2018-08-23T21:42:08.814Z,8.00
2018-08-23T21:44:37.900Z,5.93
2018-08-23T21:47:07.605Z,5.03
2018-08-23T21:49:36.567Z,3.93
2018-08-23T21:52:05.579Z,5.47
2018-08-23T21:54:34.781Z,7.73
2018-08-23T21:57:03.783Z,7.87
2018-08-23T21:59:32.882Z,8.87
2018-08-23T22:02:07.356Z,6.73
2018-08-23T22:04:41.669Z,4.40
2018-08-23T22:07:10.656Z,5.90
2018-08-23T22:09:39.863Z,8.00
2018-08-23T22:12:08.783Z,5.80
2018-08-23T22:14:37.941Z,5.70
2018-08-23T22:17:06.945Z,5.80
2018-08-23T22:19:35.991Z,5.70
2018-08-23T22:22:04.941Z,6.60
2018-08-23T22:24:33.967Z,7.10
2018-08-23T22:27:03.005Z,5.93
2018-08-23T22:29:31.949Z,8.10
2018-08-23T22:32:01.269Z,5.50
2018-08-23T22:34:30.469Z,8.20
2018-08-23T22:36:59.674Z,7.00
2018-08-23T22:39:29.429Z,4.47
2018-08-23T22:41:58.408Z,5.83
2018-08-23T22:44:27.458Z,4.90
2018-08-23T22:46:56.475Z,4.03
2018-08-23T22:49:25.530Z,8.20
2018-08-23T22:51:54.530Z,5.93
2018-08-23T22:54:23.543Z,5.10
2018-08-23T22:56:52.745Z,10.73
2018-08-23T22:59:21.730Z,5.20
2018-08-23T23:01:50.710Z,5.47
2018-08-23T23:04:25.437Z,6.10
2018-08-23T23:06:54.880Z,5.83
2018-08-23T23:09:24.382Z,5.40
2018-08-23T23:11:53.634Z,4.80
2018-08-23T23:14:22.950Z,6.50
2018-08-23T23:16:54.234Z,4.57
2018-08-23T23:19:24.131Z,6.63
2018-08-23T23:21:53.256Z,6.30
2018-08-23T23:24:27.766Z,8.77
2018-08-23T23:26:57.158Z,9.10
2018-08-23T23:29:26.253Z,6.73
2018-08-23T23:31:55.262Z,9.10
2018-08-23T23:34:24.356Z,13.20
2018-08-23T23:36:53.354Z,8.90
2018-08-23T23:39:22.445Z,9.90
2018-08-23T23:41:51.571Z,10.50
2018-08-23T23:44:20.883Z,9.97
2018-08-23T23:46:49.885Z,10.30
2018-08-23T23:49:20.155Z,10.77
2018-08-23T23:51:49.253Z,11.27
2018-08-23T23:54:18.414Z,11.53
2018-08-23T23:56:47.517Z,10.47
2018-08-23T23:59:16.791Z,11.13
